Time;durP1;ratioP1;P1;durP2;ratioP2;P2;SDS_P1;SDS_P2;PMS_P1;PMS_P2;Temp;Humidity;BMP_temperature;BMP_pressure;BME280_temperature;BME280_humidity;BME280_pressure;Samples;Min_cycle;Max_cycle;Signal;HPM_P1;HPM_P2
2023/05/30 00:01:26;;;;;;;4.57;1.50;;;13.30;99.90;;;;;;4193812;28;20250;-72
2023/05/30 00:03:28;;;;;;;4.77;1.70;;;13.30;99.90;;;;;;4195574;28;20206;-73
2023/05/30 00:05:30;;;;;;;4.27;1.60;;;13.30;99.90;;;;;;4195566;28;20584;-72
2023/05/30 00:07:33;;;;;;;3.83;1.83;;;13.20;99.90;;;;;;4194029;28;20210;-73
2023/05/30 00:09:35;;;;;;;7.17;1.73;;;13.20;99.90;;;;;;4194682;28;20194;-73
2023/05/30 00:11:37;;;;;;;4.70;1.60;;;13.10;99.90;;;;;;4192781;28;20253;-73
2023/05/30 00:13:39;;;;;;;3.53;1.60;;;13.10;99.90;;;;;;4193374;28;20214;-73
2023/05/30 00:15:41;;;;;;;4.03;1.50;;;13.10;99.90;;;;;;4191540;28;20324;-73
2023/05/30 00:17:43;;;;;;;3.20;1.50;;;13.10;99.90;;;;;;4194599;28;20597;-73
2023/05/30 00:19:45;;;;;;;4.47;1.80;;;13.00;99.90;;;;;;4195048;28;20267;-73
2023/05/30 00:21:47;;;;;;;6.80;2.20;;;13.00;99.90;;;;;;4193757;28;20238;-72
2023/05/30 00:23:51;;;;;;;4.03;1.57;;;13.00;99.90;;;;;;4193402;28;20650;-73
2023/05/30 00:25:53;;;;;;;2.67;1.40;;;12.90;99.90;;;;;;4193671;28;20233;-72
2023/05/30 00:27:58;;;;;;;4.80;1.40;;;12.90;99.90;;;;;;4190779;28;20569;-72
2023/05/30 00:30:00;;;;;;;3.77;1.60;;;12.90;99.90;;;;;;4194463;28;20892;-72
2023/05/30 00:32:02;;;;;;;5.63;1.60;;;12.90;99.90;;;;;;4193128;28;20863;-72
2023/05/30 00:34:04;;;;;;;3.93;1.57;;;12.80;99.90;;;;;;4192570;28;20293;-72
2023/05/30 00:36:06;;;;;;;4.33;1.30;;;12.80;99.90;;;;;;4192941;28;20236;-72
2023/05/30 00:38:08;;;;;;;5.03;1.63;;;12.70;99.90;;;;;;4191118;28;20214;-72
2023/05/30 00:40:12;;;;;;;4.37;1.53;;;12.70;99.90;;;;;;4195924;28;20683;-72
2023/05/30 00:42:14;;;;;;;2.97;1.33;;;12.70;99.90;;;;;;4197003;28;20201;-72
2023/05/30 00:44:16;;;;;;;3.60;1.13;;;12.70;99.90;;;;;;4197111;28;20547;-72
2023/05/30 00:46:19;;;;;;;3.03;1.20;;;12.60;99.90;;;;;;4195686;28;20220;-72
2023/05/30 00:48:21;;;;;;;4.37;1.60;;;12.60;99.90;;;;;;4195458;28;20296;-71
2023/05/30 00:50:26;;;;;;;4.03;1.23;;;12.60;99.90;;;;;;4196073;28;20233;-72
2023/05/30 00:52:29;;;;;;;4.40;1.90;;;12.60;99.90;;;;;;4195805;28;20205;-71
2023/05/30 00:54:31;;;;;;;7.63;1.43;;;12.50;99.90;;;;;;4195453;28;20198;-72
2023/05/30 00:56:35;;;;;;;5.40;1.23;;;12.50;99.90;;;;;;4196258;28;20248;-73
2023/05/30 00:58:38;;;;;;;2.87;1.47;;;12.50;99.90;;;;;;4195904;28;20690;-72
2023/05/30 01:00:40;;;;;;;2.50;1.20;;;12.40;99.90;;;;;;4192240;28;20249;-72
2023/05/30 01:02:45;;;;;;;4.10;1.47;;;12.40;99.90;;;;;;4194743;28;20755;-72
2023/05/30 01:04:48;;;;;;;4.13;1.40;;;12.40;99.90;;;;;;4196456;28;20202;-72
2023/05/30 01:06:50;;;;;;;3.53;1.43;;;12.40;99.90;;;;;;4194594;28;20209;-72
2023/05/30 01:08:52;;;;;;;3.97;1.60;;;12.40;99.90;;;;;;4195790;28;20214;-73
2023/05/30 01:11:02;;;;;;;2.30;1.40;;;12.40;99.90;;;;;;4195450;28;20283;-72
2023/05/30 01:13:14;;;;;;;3.40;1.53;;;12.30;99.90;;;;;;4195683;28;20224;-72
2023/05/30 01:15:21;;;;;;;3.90;1.40;;;12.30;99.90;;;;;;4195106;28;20674;-73
2023/05/30 01:17:32;;;;;;;4.37;1.40;;;12.20;99.90;;;;;;4196265;28;20620;-72
2023/05/30 01:20:07;;;;;;;4.00;1.70;;;12.20;99.90;;;;;;4196269;28;20727;-72
2023/05/30 01:22:20;;;;;;;4.33;1.50;;;12.20;99.90;;;;;;4188608;28;20274;-72
2023/05/30 01:24:34;;;;;;;3.63;1.50;;;12.10;99.90;;;;;;4196901;28;20216;-72
2023/05/30 01:26:55;;;;;;;5.90;1.53;;;12.20;99.90;;;;;;4195426;28;20655;-71
2023/05/30 01:29:02;;;;;;;4.87;1.50;;;12.10;99.90;;;;;;4193022;28;20210;-73
2023/05/30 01:31:05;;;;;;;4.00;1.40;;;12.10;99.90;;;;;;4193331;28;20243;-72
2023/05/30 01:33:09;;;;;;;3.93;1.40;;;12.10;99.90;;;;;;4197037;28;20628;-72
2023/05/30 01:35:22;;;;;;;4.67;1.43;;;12.00;99.90;;;;;;4195609;28;20224;-72
2023/05/30 01:37:24;;;;;;;3.00;1.20;;;11.90;99.90;;;;;;4193577;28;20894;-72
2023/05/30 01:39:26;;;;;;;3.37;1.30;;;11.90;99.90;;;;;;4195886;28;20231;-72
2023/05/30 01:41:33;;;;;;;3.80;1.33;;;11.90;99.90;;;;;;4194937;28;20744;-72
2023/05/30 01:43:45;;;;;;;5.63;1.87;;;11.90;99.90;;;;;;4195069;28;20878;-72
2023/05/30 01:45:53;;;;;;;4.57;1.47;;;11.90;99.90;;;;;;4195037;28;20716;-72
2023/05/30 01:48:07;;;;;;;4.27;1.93;;;11.90;99.90;;;;;;4195242;28;20283;-73
2023/05/30 01:50:14;;;;;;;6.03;1.60;;;11.80;99.90;;;;;;4190882;28;20210;-73
2023/05/30 01:52:20;;;;;;;2.33;1.17;;;11.80;99.90;;;;;;4190071;28;20206;-73
2023/05/30 01:54:24;;;;;;;5.33;1.40;;;11.80;99.90;;;;;;4194039;28;20207;-73
2023/05/30 01:56:28;;;;;;;3.00;1.30;;;11.80;99.90;;;;;;4194342;28;20216;-73
2023/05/30 01:58:33;;;;;;;4.10;1.43;;;11.80;99.90;;;;;;4194314;28;20194;-73
2023/05/30 02:00:35;;;;;;;3.97;1.80;;;11.70;99.90;;;;;;4195798;28;20644;-72
2023/05/30 02:02:39;;;;;;;3.17;1.50;;;11.70;99.90;;;;;;4193623;28;20315;-72
2023/05/30 02:04:40;;;;;;;6.97;1.70;;;11.70;99.90;;;;;;4195706;28;20659;-72
2023/05/30 02:06:42;;;;;;;5.80;1.77;;;11.70;99.90;;;;;;4193834;28;20204;-72
2023/05/30 02:08:43;;;;;;;3.50;1.50;;;11.60;99.90;;;;;;4194863;28;20304;-72
2023/05/30 02:10:45;;;;;;;3.73;1.63;;;11.60;99.90;;;;;;4195066;28;20295;-71
2023/05/30 02:12:47;;;;;;;6.17;1.80;;;11.60;99.90;;;;;;4195041;28;20236;-72
2023/05/30 02:14:52;;;;;;;4.97;1.87;;;11.60;99.90;;;;;;4194460;28;20241;-72
2023/05/30 02:16:54;;;;;;;6.50;1.83;;;11.50;99.90;;;;;;4192298;28;20294;-72
2023/05/30 02:18:58;;;;;;;5.30;1.50;;;11.50;99.90;;;;;;4195332;28;20201;-73
2023/05/30 02:21:00;;;;;;;8.10;1.70;;;11.50;99.90;;;;;;4196625;28;20235;-72
2023/05/30 02:23:03;;;;;;;4.57;1.60;;;11.50;99.90;;;;;;4197557;28;20280;-73
2023/05/30 02:25:06;;;;;;;4.57;1.70;;;11.40;99.90;;;;;;4196756;28;20223;-73
2023/05/30 02:27:08;;;;;;;3.73;1.70;;;11.30;99.90;;;;;;4196115;28;20298;-73
2023/05/30 02:29:10;;;;;;;3.27;1.80;;;11.30;99.90;;;;;;4194724;28;20280;-72
2023/05/30 02:31:12;;;;;;;5.97;1.77;;;11.30;99.90;;;;;;4196639;28;20264;-73
2023/05/30 02:33:14;;;;;;;4.70;1.90;;;11.20;99.90;;;;;;4195521;28;20693;-73
2023/05/30 02:35:17;;;;;;;5.83;1.93;;;11.20;99.90;;;;;;4195445;28;20658;-73
2023/05/30 02:37:19;;;;;;;6.63;1.90;;;11.20;99.90;;;;;;4193415;28;20210;-72
2023/05/30 02:39:21;;;;;;;5.90;1.80;;;11.10;99.90;;;;;;4194928;28;20289;-73
2023/05/30 02:41:23;;;;;;;5.77;1.80;;;11.10;99.90;;;;;;4193990;28;20292;-72
2023/05/30 02:43:25;;;;;;;5.93;1.70;;;11.10;99.90;;;;;;4196254;28;20342;-72
2023/05/30 02:45:27;;;;;;;4.90;1.60;;;11.00;99.90;;;;;;4195008;28;20212;-72
2023/05/30 02:47:29;;;;;;;4.17;1.73;;;11.00;99.90;;;;;;4193730;28;21089;-72
2023/05/30 02:49:31;;;;;;;4.53;1.87;;;10.90;99.90;;;;;;4194779;28;20310;-72
2023/05/30 02:51:35;;;;;;;4.47;1.70;;;10.90;99.90;;;;;;4194925;28;20277;-71
2023/05/30 02:53:37;;;;;;;5.50;1.70;;;10.80;99.90;;;;;;4194866;28;20204;-72
2023/05/30 02:55:42;;;;;;;4.63;1.80;;;10.80;99.90;;;;;;4194428;28;20205;-72
2023/05/30 02:57:44;;;;;;;3.77;1.43;;;10.70;99.90;;;;;;4193402;28;20214;-72
2023/05/30 02:59:46;;;;;;;4.23;1.50;;;10.70;99.90;;;;;;4193274;28;20218;-72
2023/05/30 03:01:48;;;;;;;4.03;1.70;;;10.70;99.90;;;;;;4188668;28;20252;-72
2023/05/30 03:03:50;;;;;;;2.80;1.50;;;10.60;99.90;;;;;;4193309;28;20216;-72
2023/05/30 03:05:53;;;;;;;5.10;1.53;;;10.60;99.90;;;;;;4193887;28;20309;-72
2023/05/30 03:07:56;;;;;;;7.17;1.80;;;10.60;99.90;;;;;;4191862;28;20213;-72
2023/05/30 03:09:58;;;;;;;3.50;1.40;;;10.50;99.90;;;;;;4193963;28;20264;-72
2023/05/30 03:12:00;;;;;;;4.33;1.63;;;10.50;99.90;;;;;;4193589;28;20234;-72
2023/05/30 03:14:02;;;;;;;5.70;1.50;;;10.50;99.90;;;;;;4192876;28;20704;-72
2023/05/30 03:16:05;;;;;;;4.07;1.60;;;10.50;99.90;;;;;;4192661;28;20661;-72
2023/05/30 03:18:07;;;;;;;3.60;1.50;;;10.40;99.90;;;;;;4192419;28;20276;-72
2023/05/30 03:20:10;;;;;;;6.10;1.80;;;10.50;99.90;;;;;;4192913;28;20234;-72
2023/05/30 03:22:11;;;;;;;5.23;1.70;;;10.40;99.90;;;;;;4193802;28;20753;-71
2023/05/30 03:24:15;;;;;;;4.47;1.50;;;10.40;99.90;;;;;;4193316;28;20286;-72
2023/05/30 03:26:17;;;;;;;4.03;1.57;;;10.30;99.90;;;;;;4192079;28;20298;-71
2023/05/30 03:28:19;;;;;;;4.23;1.70;;;10.30;99.90;;;;;;4193921;28;20221;-72
2023/05/30 03:30:25;;;;;;;2.50;1.37;;;10.30;99.90;;;;;;4193148;28;20277;-72
2023/05/30 03:32:27;;;;;;;3.90;1.90;;;10.20;99.90;;;;;;4192118;28;20284;-71
2023/05/30 03:34:30;;;;;;;5.40;1.80;;;10.20;99.90;;;;;;4192597;28;21019;-71
2023/05/30 03:36:32;;;;;;;3.07;1.37;;;10.20;99.90;;;;;;4191815;28;20301;-71
2023/05/30 03:38:34;;;;;;;5.00;1.80;;;10.20;99.90;;;;;;4191204;28;20309;-72
2023/05/30 03:40:37;;;;;;;5.07;1.73;;;10.10;99.90;;;;;;4191703;28;20313;-72
2023/05/30 03:42:39;;;;;;;4.07;1.50;;;10.10;99.90;;;;;;4189661;28;20303;-72
2023/05/30 03:44:41;;;;;;;5.07;1.50;;;10.10;99.90;;;;;;4192652;28;20301;-71
2023/05/30 03:46:43;;;;;;;2.67;1.50;;;10.10;99.90;;;;;;4191600;28;20265;-71
2023/05/30 03:48:45;;;;;;;3.73;1.40;;;10.00;99.90;;;;;;4189285;28;20306;-72
2023/05/30 03:50:47;;;;;;;2.57;1.40;;;10.00;99.90;;;;;;4192043;28;20332;-72
2023/05/30 03:52:49;;;;;;;5.40;1.60;;;10.00;99.90;;;;;;4192388;28;20329;-71
2023/05/30 03:54:51;;;;;;;3.77;1.53;;;9.90;99.90;;;;;;4192977;28;20207;-72
2023/05/30 03:56:54;;;;;;;3.97;1.60;;;9.90;99.90;;;;;;4191888;28;20293;-72
2023/05/30 03:58:56;;;;;;;3.67;1.70;;;9.90;99.90;;;;;;4192122;28;20479;-72
2023/05/30 04:01:00;;;;;;;3.50;1.47;;;9.90;99.90;;;;;;4192730;28;20248;-72
2023/05/30 04:03:02;;;;;;;3.67;1.63;;;9.90;99.90;;;;;;4193105;28;20259;-72
2023/05/30 04:05:05;;;;;;;7.57;1.47;;;9.90;99.90;;;;;;4192593;28;20206;-72
2023/05/30 04:07:07;;;;;;;5.47;1.57;;;9.90;99.90;;;;;;4191931;28;20215;-72
2023/05/30 04:09:09;;;;;;;5.03;1.43;;;9.80;99.90;;;;;;4192730;28;20215;-71
2023/05/30 04:11:11;;;;;;;3.53;1.60;;;9.80;99.90;;;;;;4192743;28;20229;-72
2023/05/30 04:13:14;;;;;;;3.23;1.60;;;9.80;99.90;;;;;;4186992;28;20202;-72
2023/05/30 04:15:16;;;;;;;2.93;1.33;;;9.80;99.90;;;;;;4194146;28;20210;-72
2023/05/30 04:17:18;;;;;;;4.77;1.43;;;9.80;99.90;;;;;;4194110;28;20904;-73
2023/05/30 04:19:20;;;;;;;3.63;1.33;;;9.80;99.90;;;;;;4191082;28;20215;-71
2023/05/30 04:21:25;;;;;;;4.13;1.63;;;9.80;99.90;;;;;;4195842;28;20236;-71
2023/05/30 04:23:27;;;;;;;2.60;1.33;;;9.80;99.90;;;;;;4194660;28;20926;-71
2023/05/30 04:25:30;;;;;;;5.60;1.63;;;9.80;99.90;;;;;;4195909;28;21046;-71
2023/05/30 04:27:36;;;;;;;4.17;1.67;;;9.70;99.90;;;;;;4194371;28;20209;-71
2023/05/30 04:29:40;;;;;;;4.07;1.50;;;9.80;99.90;;;;;;4193990;28;20212;-71
2023/05/30 04:31:43;;;;;;;2.63;1.43;;;9.80;99.90;;;;;;4194170;28;20270;-71
2023/05/30 04:33:48;;;;;;;3.57;1.80;;;9.80;99.90;;;;;;4195415;28;20229;-71
2023/05/30 04:35:50;;;;;;;5.30;1.73;;;9.80;99.90;;;;;;4194861;28;20222;-72
2023/05/30 04:37:53;;;;;;;4.87;1.70;;;9.80;99.90;;;;;;4194991;28;20218;-71
2023/05/30 04:39:55;;;;;;;6.93;1.50;;;9.80;99.90;;;;;;4195088;28;20215;-71
2023/05/30 04:41:58;;;;;;;4.50;1.70;;;9.80;99.90;;;;;;4194671;28;20227;-72
2023/05/30 04:44:02;;;;;;;4.17;1.67;;;9.90;99.90;;;;;;4195628;28;20210;-72
2023/05/30 04:46:06;;;;;;;4.20;1.67;;;9.90;99.90;;;;;;4195145;28;20214;-72
2023/05/30 04:48:09;;;;;;;4.30;1.63;;;9.90;99.90;;;;;;4193886;28;20238;-72
2023/05/30 04:50:11;;;;;;;4.60;1.60;;;9.90;99.90;;;;;;4194678;28;20289;-72
2023/05/30 04:52:13;;;;;;;4.37;1.70;;;9.90;99.90;;;;;;4196310;28;20243;-72
2023/05/30 04:54:15;;;;;;;6.37;2.00;;;9.90;99.90;;;;;;4193522;28;20248;-72
2023/05/30 04:56:17;;;;;;;4.60;1.83;;;10.00;99.90;;;;;;4195423;28;20218;-72
2023/05/30 04:58:19;;;;;;;2.67;1.50;;;10.00;99.90;;;;;;4193293;28;20297;-72
2023/05/30 05:00:22;;;;;;;6.90;1.50;;;10.00;99.90;;;;;;4194409;28;20198;-72
2023/05/30 05:02:28;;;;;;;5.03;1.53;;;10.00;99.90;;;;;;4194737;28;20246;-71
2023/05/30 05:04:30;;;;;;;3.23;1.60;;;10.00;99.90;;;;;;4197554;28;20292;-72
2023/05/30 05:06:31;;;;;;;3.63;1.37;;;10.10;99.90;;;;;;4195628;28;20777;-72
2023/05/30 05:08:33;;;;;;;4.47;1.30;;;10.10;99.90;;;;;;4194155;28;20289;-71
2023/05/30 05:10:35;;;;;;;5.03;1.80;;;10.10;99.90;;;;;;4196176;28;20313;-72
2023/05/30 05:12:37;;;;;;;4.43;1.90;;;10.10;99.90;;;;;;4191136;28;20261;-71
2023/05/30 05:14:39;;;;;;;4.13;1.60;;;10.10;99.90;;;;;;4193287;28;20707;-71
2023/05/30 05:16:41;;;;;;;6.17;2.10;;;10.20;99.90;;;;;;4194333;28;20241;-71
2023/05/30 05:18:44;;;;;;;4.40;1.70;;;10.20;99.90;;;;;;4196042;28;20303;-72
2023/05/30 05:20:46;;;;;;;5.00;1.77;;;10.30;99.90;;;;;;4195344;28;20257;-72
2023/05/30 05:22:48;;;;;;;5.17;1.93;;;10.30;99.90;;;;;;4197143;28;20306;-72
2023/05/30 05:24:50;;;;;;;3.67;1.50;;;10.40;99.90;;;;;;4187627;28;20210;-71
2023/05/30 05:26:52;;;;;;;4.47;1.83;;;10.50;99.90;;;;;;4193658;28;20632;-71
2023/05/30 05:28:55;;;;;;;1.93;1.30;;;10.50;99.90;;;;;;4194152;28;20295;-71
2023/05/30 05:30:58;;;;;;;3.17;1.40;;;10.60;99.90;;;;;;4195630;28;20232;-71
2023/05/30 05:33:00;;;;;;;6.70;1.80;;;10.60;99.90;;;;;;4193562;28;20680;-71
2023/05/30 05:35:03;;;;;;;5.27;1.90;;;10.70;99.90;;;;;;4193853;28;20219;-71
2023/05/30 05:37:06;;;;;;;3.47;1.40;;;10.80;99.90;;;;;;4192967;28;20226;-71
2023/05/30 05:39:09;;;;;;;2.87;1.63;;;10.80;99.90;;;;;;4195935;28;20630;-71
2023/05/30 05:41:11;;;;;;;3.93;1.60;;;10.90;99.90;;;;;;4196580;28;20233;-73
2023/05/30 05:43:13;;;;;;;6.10;1.80;;;10.90;99.90;;;;;;4197349;28;20730;-73
2023/05/30 05:45:15;;;;;;;4.40;1.70;;;11.00;99.90;;;;;;4195477;28;20209;-74
2023/05/30 05:47:16;;;;;;;4.50;1.60;;;11.00;99.90;;;;;;4195703;28;20301;-75
2023/05/30 05:49:18;;;;;;;6.00;1.80;;;11.10;99.90;;;;;;4195932;28;20215;-75
2023/05/30 05:51:24;;;;;;;3.50;1.53;;;11.10;99.90;;;;;;4193353;28;20227;-72
2023/05/30 05:53:26;;;;;;;5.83;2.10;;;11.10;99.90;;;;;;4183969;28;20617;-71
2023/05/30 05:55:28;;;;;;;4.93;1.57;;;11.20;99.90;;;;;;4190896;28;20210;-72
2023/05/30 05:57:30;;;;;;;5.43;1.83;;;11.30;99.90;;;;;;4195288;28;20304;-73
2023/05/30 05:59:32;;;;;;;8.30;2.17;;;11.30;99.90;;;;;;4190478;28;20247;-73
2023/05/30 06:01:33;;;;;;;5.10;1.80;;;11.30;99.90;;;;;;4190750;28;20256;-74
2023/05/30 06:03:35;;;;;;;7.40;1.97;;;11.40;99.90;;;;;;4193586;28;20212;-74
2023/05/30 06:05:37;;;;;;;4.87;1.80;;;11.30;99.90;;;;;;4194758;28;20299;-73
2023/05/30 06:07:40;;;;;;;4.07;1.63;;;11.40;99.90;;;;;;4190706;28;20220;-73
2023/05/30 06:09:42;;;;;;;7.50;1.70;;;11.40;99.90;;;;;;4193779;28;20217;-73
2023/05/30 06:11:44;;;;;;;6.33;2.00;;;11.40;99.90;;;;;;4194009;28;20323;-74
2023/05/30 06:13:46;;;;;;;3.87;1.53;;;11.50;99.90;;;;;;4194037;28;20226;-73
2023/05/30 06:15:48;;;;;;;5.43;2.00;;;11.50;99.90;;;;;;4195520;28;20308;-74
2023/05/30 06:17:50;;;;;;;7.53;2.17;;;11.50;99.90;;;;;;4191713;28;20209;-73
2023/05/30 06:19:52;;;;;;;7.67;2.03;;;11.50;99.90;;;;;;4191333;28;20303;-73
2023/05/30 06:21:53;;;;;;;9.17;2.33;;;11.60;99.90;;;;;;4194273;28;20324;-74
2023/05/30 06:23:57;;;;;;;4.50;1.60;;;11.60;99.90;;;;;;4193635;28;20306;-73
2023/05/30 06:25:59;;;;;;;5.63;1.60;;;11.50;99.90;;;;;;4195080;28;20246;-73
2023/05/30 06:28:01;;;;;;;5.53;2.00;;;11.60;99.90;;;;;;4194117;28;20670;-74
2023/05/30 06:30:03;;;;;;;5.43;1.80;;;11.60;99.90;;;;;;4194415;28;20307;-74
2023/05/30 06:32:05;;;;;;;7.27;2.10;;;11.60;99.90;;;;;;4193640;28;20229;-74
2023/05/30 06:34:07;;;;;;;5.07;1.87;;;11.70;99.90;;;;;;4193195;28;20688;-73
2023/05/30 06:36:10;;;;;;;9.73;1.93;;;11.70;99.90;;;;;;4192909;28;20217;-73
2023/05/30 06:38:12;;;;;;;6.13;2.67;;;11.70;99.90;;;;;;4192703;28;20212;-73
2023/05/30 06:40:15;;;;;;;5.57;1.90;;;11.80;99.90;;;;;;4193437;28;20304;-73
2023/05/30 06:42:17;;;;;;;4.87;2.10;;;11.80;99.90;;;;;;4194076;28;20274;-73
2023/05/30 06:44:19;;;;;;;9.03;2.20;;;11.80;99.90;;;;;;4194180;28;20307;-74
2023/05/30 06:46:21;;;;;;;6.67;2.07;;;11.90;99.90;;;;;;4190872;28;20586;-73
2023/05/30 06:48:23;;;;;;;4.67;1.97;;;11.90;99.90;;;;;;4194645;28;20237;-72
2023/05/30 06:50:25;;;;;;;4.37;1.73;;;11.90;99.90;;;;;;4192345;28;20327;-73
2023/05/30 06:52:27;;;;;;;4.23;1.70;;;12.00;99.90;;;;;;4194691;28;20567;-72
2023/05/30 06:54:28;;;;;;;5.57;1.97;;;12.00;99.90;;;;;;4191446;28;20222;-72
2023/05/30 06:56:32;;;;;;;4.03;1.70;;;12.10;99.90;;;;;;4193115;28;20222;-73
2023/05/30 06:58:34;;;;;;;5.83;1.90;;;12.20;99.90;;;;;;4194098;28;20293;-73
2023/05/30 07:00:37;;;;;;;5.63;2.00;;;12.20;99.90;;;;;;4194322;28;20251;-73
2023/05/30 07:02:38;;;;;;;4.67;1.80;;;12.20;99.90;;;;;;4192082;28;20205;-73
2023/05/30 07:04:40;;;;;;;7.60;1.90;;;12.30;99.90;;;;;;4193872;28;20897;-73
2023/05/30 07:06:42;;;;;;;8.87;2.17;;;12.30;99.90;;;;;;4191879;28;20201;-72
2023/05/30 07:08:44;;;;;;;4.13;1.70;;;12.40;99.90;;;;;;4193741;28;20223;-73
2023/05/30 07:10:49;;;;;;;7.33;1.70;;;12.40;99.90;;;;;;4195236;28;20692;-73
2023/05/30 07:12:52;;;;;;;4.80;1.47;;;12.50;99.90;;;;;;4193070;28;20758;-73
2023/05/30 07:14:54;;;;;;;7.37;1.73;;;12.60;99.90;;;;;;4187646;28;20210;-73
2023/05/30 07:16:56;;;;;;;4.73;2.00;;;12.60;99.90;;;;;;4193318;28;20241;-73
2023/05/30 07:18:58;;;;;;;7.40;1.97;;;12.60;99.90;;;;;;4193309;28;20304;-73
2023/05/30 07:21:00;;;;;;;5.43;1.60;;;12.70;99.90;;;;;;4192846;28;20328;-74
2023/05/30 07:23:02;;;;;;;4.23;1.43;;;12.80;99.90;;;;;;4194252;28;20237;-74
2023/05/30 07:25:05;;;;;;;5.10;1.60;;;12.80;99.90;;;;;;4191316;28;20654;-73
2023/05/30 07:27:07;;;;;;;5.20;1.90;;;12.80;99.90;;;;;;4194181;28;20210;-74
2023/05/30 07:29:11;;;;;;;4.13;1.90;;;12.90;99.90;;;;;;4193265;28;20637;-72
2023/05/30 07:31:13;;;;;;;3.13;1.17;;;13.00;99.90;;;;;;4192410;28;20229;-72
2023/05/30 07:33:14;;;;;;;3.87;1.50;;;13.00;99.90;;;;;;4192596;28;20743;-73
2023/05/30 07:35:16;;;;;;;3.93;1.67;;;13.10;99.90;;;;;;4193649;28;20691;-75
2023/05/30 07:37:18;;;;;;;2.50;1.30;;;13.20;99.90;;;;;;4193015;28;20309;-74
2023/05/30 07:39:20;;;;;;;3.80;1.60;;;13.20;99.90;;;;;;4194136;28;20206;-73
2023/05/30 07:41:22;;;;;;;6.03;1.60;;;13.30;99.90;;;;;;4192640;28;20238;-73
2023/05/30 07:43:24;;;;;;;4.23;1.70;;;13.30;99.90;;;;;;4193542;28;20213;-74
2023/05/30 07:45:27;;;;;;;5.60;1.40;;;13.40;99.90;;;;;;4190900;28;20220;-74
2023/05/30 07:47:30;;;;;;;3.73;1.53;;;13.40;99.90;;;;;;4193108;28;20214;-73
2023/05/30 07:49:32;;;;;;;8.00;1.80;;;13.50;99.90;;;;;;4193156;28;20205;-72
2023/05/30 07:51:35;;;;;;;8.97;1.70;;;13.60;99.90;;;;;;4192704;28;20321;-72
2023/05/30 07:53:37;;;;;;;3.30;1.57;;;13.60;99.90;;;;;;4192492;28;20226;-72
2023/05/30 07:55:39;;;;;;;6.03;1.80;;;13.70;99.90;;;;;;4192018;28;20207;-74
2023/05/30 07:57:41;;;;;;;7.17;1.40;;;13.80;99.90;;;;;;4191951;28;20212;-74
2023/05/30 07:59:43;;;;;;;3.30;1.30;;;13.80;99.90;;;;;;4192290;28;20252;-72
2023/05/30 08:01:46;;;;;;;3.33;1.43;;;13.90;99.90;;;;;;4191361;28;20240;-72
2023/05/30 08:03:48;;;;;;;2.40;1.40;;;13.90;99.90;;;;;;4193612;28;20306;-72
2023/05/30 08:05:51;;;;;;;3.67;1.37;;;14.00;99.90;;;;;;4193697;28;20220;-72
2023/05/30 08:07:52;;;;;;;4.00;1.20;;;14.00;99.90;;;;;;4192215;28;20214;-73
2023/05/30 08:09:54;;;;;;;6.50;1.20;;;14.10;99.90;;;;;;4191714;28;20221;-73
2023/05/30 08:11:56;;;;;;;2.90;1.23;;;14.20;99.90;;;;;;4193205;28;20254;-73
2023/05/30 08:13:58;;;;;;;3.10;1.00;;;14.20;99.90;;;;;;4192828;28;20239;-74
2023/05/30 08:16:01;;;;;;;3.17;1.00;;;14.30;99.90;;;;;;4193054;28;20215;-74
2023/05/30 08:18:04;;;;;;;4.17;1.50;;;14.30;99.90;;;;;;4193388;28;20219;-73
2023/05/30 08:20:08;;;;;;;3.00;1.60;;;14.40;99.90;;;;;;4193819;28;20208;-73
2023/05/30 08:22:11;;;;;;;3.30;1.30;;;14.50;99.90;;;;;;4192750;28;20253;-73
2023/05/30 08:24:15;;;;;;;4.93;1.80;;;14.60;99.90;;;;;;4190005;28;20214;-73
2023/05/30 08:26:16;;;;;;;3.40;1.30;;;14.70;99.90;;;;;;4189332;28;20661;-73
2023/05/30 08:28:18;;;;;;;3.73;1.20;;;14.70;99.90;;;;;;4192265;28;20237;-73
2023/05/30 08:30:21;;;;;;;2.67;1.43;;;14.80;99.90;;;;;;4193267;28;20207;-73
2023/05/30 08:32:22;;;;;;;4.57;1.70;;;14.90;99.90;;;;;;4191801;28;20209;-74
2023/05/30 08:34:26;;;;;;;5.03;1.40;;;14.90;99.90;;;;;;4190452;28;20242;-74
2023/05/30 08:36:27;;;;;;;5.93;1.43;;;15.00;99.90;;;;;;4189207;28;20216;-73
2023/05/30 08:38:29;;;;;;;4.00;1.50;;;15.10;99.90;;;;;;4190524;28;20666;-73
2023/05/30 08:40:31;;;;;;;5.00;1.60;;;15.20;99.90;;;;;;4193196;28;20246;-73
2023/05/30 08:42:33;;;;;;;7.17;1.63;;;15.30;99.90;;;;;;4188949;28;20232;-73
2023/05/30 08:44:35;;;;;;;3.40;1.40;;;15.30;99.90;;;;;;4191327;28;20228;-73
2023/05/30 08:46:42;;;;;;;3.33;1.43;;;15.40;99.90;;;;;;4191318;28;20214;-73
2023/05/30 08:48:45;;;;;;;3.57;1.33;;;15.50;99.90;;;;;;4190712;28;20217;-73
2023/05/30 08:50:49;;;;;;;5.47;1.50;;;15.60;99.90;;;;;;4192069;28;20588;-74
2023/05/30 08:52:53;;;;;;;6.13;1.60;;;15.60;99.90;;;;;;4190979;28;20283;-74
2023/05/30 08:55:02;;;;;;;2.40;1.30;;;15.70;99.90;;;;;;4188479;28;20202;-74
2023/05/30 08:57:10;;;;;;;7.93;1.90;;;15.80;99.90;;;;;;4192011;28;20200;-73
2023/05/30 08:59:14;;;;;;;6.20;2.30;;;15.80;99.90;;;;;;4192121;28;20239;-73
2023/05/30 09:01:16;;;;;;;10.20;2.80;;;15.90;99.90;;;;;;4195924;28;20222;-73
2023/05/30 09:03:20;;;;;;;7.93;2.23;;;16.00;99.90;;;;;;4195779;28;20883;-73
2023/05/30 09:05:22;;;;;;;7.33;1.90;;;16.10;99.90;;;;;;4194657;28;20217;-73
2023/05/30 09:07:28;;;;;;;5.90;1.50;;;16.10;99.90;;;;;;4195323;28;20218;-74
2023/05/30 09:09:34;;;;;;;3.80;1.50;;;16.20;99.90;;;;;;4195816;28;20213;-74
2023/05/30 09:11:36;;;;;;;5.67;1.60;;;16.30;99.90;;;;;;4194227;28;20241;-75
2023/05/30 09:13:40;;;;;;;7.00;1.60;;;16.40;99.90;;;;;;4192759;28;20230;-75
2023/05/30 09:15:42;;;;;;;6.27;1.83;;;16.50;95.10;;;;;;4196928;28;20217;-76
2023/05/30 09:17:44;;;;;;;2.57;1.30;;;16.50;93.70;;;;;;4193724;28;20206;-74
2023/05/30 09:19:47;;;;;;;3.13;1.40;;;16.60;94.00;;;;;;4194553;28;20671;-73
2023/05/30 09:21:49;;;;;;;5.20;1.50;;;16.60;96.10;;;;;;4194169;28;20235;-74
2023/05/30 09:23:53;;;;;;;5.87;1.30;;;16.70;99.90;;;;;;4194545;28;20205;-73
2023/05/30 09:25:54;;;;;;;2.93;1.30;;;16.80;97.80;;;;;;4193237;28;20213;-73
2023/05/30 09:27:56;;;;;;;3.93;1.47;;;16.90;94.00;;;;;;4196265;28;20234;-73
2023/05/30 09:30:06;;;;;;;6.07;1.50;;;16.90;94.10;;;;;;4193653;28;20216;-74
2023/05/30 09:32:09;;;;;;;5.80;1.63;;;17.00;96.30;;;;;;4195001;28;20249;-74
2023/05/30 09:34:19;;;;;;;4.60;1.30;;;17.00;99.80;;;;;;4191093;28;20322;-74
2023/05/30 09:36:23;;;;;;;6.90;1.50;;;17.10;91.50;;;;;;4195062;28;20628;-73
2023/05/30 09:38:25;;;;;;;2.93;1.30;;;17.20;84.40;;;;;;4193908;28;20206;-74
2023/05/30 09:40:30;;;;;;;5.50;1.70;;;17.30;82.80;;;;;;4194465;28;20316;-75
2023/05/30 09:42:39;;;;;;;3.80;1.33;;;17.30;89.30;;;;;;4195499;28;20746;-73
2023/05/30 09:44:54;;;;;;;3.73;1.30;;;17.30;75.60;;;;;;4192706;28;20205;-73
2023/05/30 09:46:56;;;;;;;3.53;1.23;;;17.30;74.50;;;;;;4190602;28;20210;-72
2023/05/30 09:48:58;;;;;;;3.53;1.30;;;17.40;81.20;;;;;;4194901;28;20214;-72
2023/05/30 09:51:01;;;;;;;4.33;1.40;;;17.50;78.80;;;;;;4194072;28;20234;-72
2023/05/30 09:53:04;;;;;;;5.00;1.57;;;17.60;85.10;;;;;;4192276;28;20218;-73
2023/05/30 09:55:07;;;;;;;4.30;1.60;;;17.70;79.40;;;;;;4193965;28;20239;-72
2023/05/30 09:57:11;;;;;;;3.70;1.47;;;17.80;77.50;;;;;;4193968;28;20582;-73
2023/05/30 09:59:14;;;;;;;6.13;1.40;;;17.90;86.50;;;;;;4193129;28;20213;-72
2023/05/30 10:01:17;;;;;;;2.50;1.17;;;18.10;84.60;;;;;;4193755;28;20279;-72
2023/05/30 10:03:19;;;;;;;6.50;1.40;;;18.20;73.30;;;;;;4193498;28;20210;-73
2023/05/30 10:05:23;;;;;;;3.33;1.50;;;18.40;72.20;;;;;;4194025;28;20210;-78
2023/05/30 10:07:26;;;;;;;5.57;1.50;;;18.40;69.50;;;;;;4194980;28;20243;-72
2023/05/30 10:09:28;;;;;;;5.13;1.40;;;18.40;72.60;;;;;;4193419;28;20218;-72
2023/05/30 10:11:31;;;;;;;5.60;1.70;;;18.50;68.10;;;;;;4191239;28;20322;-72
2023/05/30 10:13:34;;;;;;;4.37;1.70;;;18.60;66.20;;;;;;4196348;28;20238;-71
2023/05/30 10:15:36;;;;;;;5.97;1.40;;;18.60;58.80;;;;;;4197504;28;20295;-74
2023/05/30 10:17:45;;;;;;;5.13;1.60;;;18.70;58.90;;;;;;4197575;28;20202;-71
2023/05/30 10:19:55;;;;;;;5.67;1.40;;;18.70;66.30;;;;;;4195700;28;20212;-71
2023/05/30 10:21:59;;;;;;;3.40;1.57;;;18.80;62.30;;;;;;4194927;28;20330;-73
2023/05/30 10:24:02;;;;;;;5.83;1.67;;;18.90;61.40;;;;;;4194316;28;20286;-73
2023/05/30 10:26:04;;;;;;;3.03;1.63;;;19.00;60.30;;;;;;4193261;28;20934;-74
2023/05/30 10:28:09;;;;;;;5.17;1.33;;;19.10;54.20;;;;;;4194064;28;20218;-73
2023/05/30 10:30:15;;;;;;;5.40;1.73;;;19.20;54.20;;;;;;4192905;28;20209;-71
2023/05/30 10:32:25;;;;;;;3.67;1.50;;;19.30;51.00;;;;;;4194182;28;20211;-75
2023/05/30 10:34:35;;;;;;;2.67;1.43;;;19.50;51.20;;;;;;4191896;28;20224;-75
2023/05/30 10:36:41;;;;;;;4.40;1.63;;;19.60;50.80;;;;;;4193939;28;21144;-73
2023/05/30 10:38:51;;;;;;;2.57;1.30;;;19.80;50.00;;;;;;4192726;28;20273;-74
2023/05/30 10:41:00;;;;;;;3.47;1.43;;;19.90;50.30;;;;;;4191566;28;20335;-74
2023/05/30 10:43:10;;;;;;;5.67;1.67;;;20.10;48.90;;;;;;4193028;28;20216;-74